Time;durP1;ratioP1;P1;durP2;ratioP2;P2;SDS_P1;SDS_P2;PMS_P1;PMS_P2;Temp;Humidity;BMP_temperature;BMP_pressure;BME280_temperature;BME280_humidity;BME280_pressure;Samples;Min_cycle;Max_cycle;Signal;HPM_P1;HPM_P2
2022/04/22 00:02:35;;;;;;;15.48;8.52;;;;;;;11.11;88.03;100925.50;10421104;28;20049;-56
2022/04/22 00:07:38;;;;;;;10.27;7.47;;;;;;;11.13;88.82;100928.03;10418296;28;20055;-57
2022/04/22 00:12:40;;;;;;;11.15;8.18;;;;;;;11.17;87.79;100918.22;10418847;28;20507;-56
2022/04/22 00:17:43;;;;;;;11.90;7.80;;;;;;;10.78;91.65;100918.63;10418980;28;20056;-56
2022/04/22 00:22:45;;;;;;;9.48;8.45;;;;;;;10.89;91.86;100920.66;10420260;28;20041;-56
2022/04/22 00:27:48;;;;;;;14.25;8.65;;;;;;;10.70;93.43;100914.75;10419119;28;20050;-56
2022/04/22 00:32:50;;;;;;;9.90;7.80;;;;;;;10.70;93.48;100910.34;10418921;28;20080;-56
2022/04/22 00:37:53;;;;;;;11.85;8.38;;;;;;;10.75;92.10;100908.31;10427701;28;20052;-56
2022/04/22 00:42:56;;;;;;;10.30;7.80;;;;;;;10.74;89.85;100909.25;10456872;28;20049;-56
2022/04/22 00:47:58;;;;;;;13.30;8.52;;;;;;;10.61;92.33;100905.63;10457290;28;20408;-56
2022/04/22 00:53:01;;;;;;;12.07;8.68;;;;;;;10.59;93.93;100903.09;10418146;28;20054;-56
2022/04/22 00:58:04;;;;;;;12.57;9.15;;;;;;;10.59;93.72;100900.47;10428812;28;20049;-56
2022/04/22 01:03:06;;;;;;;11.60;8.82;;;;;;;10.43;94.05;100891.78;10457210;28;20052;-56
2022/04/22 01:13:31;;;;;;;10.40;8.57;;;;;;;10.40;94.26;100876.25;10456986;28;20059;-56
2022/04/22 01:18:33;;;;;;;11.65;9.25;;;;;;;10.15;96.98;100874.94;10430983;28;20060;-55
2022/04/22 01:23:36;;;;;;;12.23;9.55;;;;;;;10.11;97.19;100872.59;10426785;28;20061;-56
2022/04/22 01:28:39;;;;;;;13.07;9.95;;;;;;;10.12;97.82;100872.50;10415832;28;20053;-56
2022/04/22 01:33:41;;;;;;;12.30;9.10;;;;;;;10.08;98.72;100867.53;10416652;28;20050;-55
2022/04/22 01:38:44;;;;;;;12.57;9.93;;;;;;;10.03;99.65;100855.50;10451938;28;20058;-56
2022/04/22 01:43:46;;;;;;;11.75;10.07;;;;;;;9.90;100.00;100854.53;10455826;28;20049;-55
2022/04/22 01:48:48;;;;;;;15.20;9.05;;;;;;;9.95;100.00;100849.00;10432197;28;20436;-54
2022/04/22 01:53:51;;;;;;;13.45;10.13;;;;;;;9.70;100.00;100845.13;10416103;28;20073;-56
2022/04/22 01:58:54;;;;;;;16.42;10.35;;;;;;;9.44;100.00;100844.69;10414799;28;20045;-56
2022/04/22 02:03:56;;;;;;;13.55;10.05;;;;;;;9.05;100.00;100850.19;10449676;28;20045;-55
2022/04/22 02:08:58;;;;;;;10.55;9.40;;;;;;;8.98;100.00;100854.88;10455830;28;20052;-56
2022/04/22 02:14:01;;;;;;;13.38;10.68;;;;;;;9.03;100.00;100845.06;10456208;28;20060;-54
2022/04/22 02:19:04;;;;;;;13.15;10.18;;;;;;;8.99;100.00;100845.28;10445953;28;20045;-54
2022/04/22 02:24:06;;;;;;;17.45;12.10;;;;;;;8.80;100.00;100845.34;10421175;28;20041;-55
2022/04/22 02:29:10;;;;;;;16.50;11.10;;;;;;;8.79;100.00;100838.44;10414833;28;20400;-56
2022/04/22 02:34:12;;;;;;;13.00;11.10;;;;;;;9.03;100.00;100836.38;10415265;28;20049;-55
2022/04/22 02:39:15;;;;;;;14.18;9.93;;;;;;;8.94;100.00;100840.28;10417683;28;20057;-56
2022/04/22 02:49:43;;;;;;;14.23;11.30;;;;;;;9.21;100.00;100829.34;10464362;28;20056;-56
2022/04/22 02:54:45;;;;;;;14.63;11.40;;;;;;;9.01;100.00;100836.47;10464074;28;20056;-56
2022/04/22 02:59:48;;;;;;;13.43;10.70;;;;;;;9.15;100.00;100834.91;10454508;28;20049;-56
2022/04/22 03:04:50;;;;;;;14.55;10.80;;;;;;;9.09;100.00;100836.03;10450248;28;20496;-56
2022/04/22 03:09:53;;;;;;;14.82;11.57;;;;;;;9.23;100.00;100828.38;10421539;28;20049;-56
2022/04/22 03:14:56;;;;;;;18.17;11.18;;;;;;;9.00;100.00;100829.53;10430092;28;20045;-56
2022/04/22 03:19:58;;;;;;;15.82;11.00;;;;;;;9.25;100.00;100823.06;10461881;28;20055;-56
2022/04/22 03:25:00;;;;;;;15.13;11.43;;;;;;;9.16;100.00;100821.75;10462386;28;20045;-55
2022/04/22 03:30:03;;;;;;;15.30;10.45;;;;;;;9.35;100.00;100818.22;10461765;28;20457;-55
2022/04/22 03:35:06;;;;;;;16.42;10.90;;;;;;;9.26;100.00;100819.50;10461851;28;20396;-55
2022/04/22 03:40:10;;;;;;;17.88;12.25;;;;;;;9.06;100.00;100810.94;10460092;28;20061;-55
2022/04/22 03:45:14;;;;;;;14.68;10.75;;;;;;;9.22;100.00;100808.38;10461951;28;20045;-56
2022/04/22 03:50:16;;;;;;;15.13;11.93;;;;;;;9.16;100.00;100810.47;10459589;28;20045;-56
2022/04/22 03:55:19;;;;;;;12.98;10.85;;;;;;;9.25;100.00;100805.63;10454718;28;20084;-56
2022/04/22 04:00:21;;;;;;;16.08;10.60;;;;;;;8.94;100.00;100803.72;10421263;28;20056;-55
2022/04/22 04:05:24;;;;;;;14.52;10.70;;;;;;;8.99;100.00;100809.53;10419296;28;20401;-56
2022/04/22 04:15:59;;;;;;;20.05;12.85;;;;;;;8.88;100.00;100804.03;10449398;28;20046;-56
2022/04/22 04:26:26;;;;;;;24.15;13.85;;;;;;;9.16;100.00;100810.47;10419215;28;20045;-55
2022/04/22 04:31:28;;;;;;;16.25;12.35;;;;;;;8.94;100.00;100808.94;10419021;28;20049;-56
2022/04/22 04:36:31;;;;;;;22.90;13.60;;;;;;;8.98;100.00;100807.88;10418815;28;20050;-56
2022/04/22 04:41:33;;;;;;;23.67;14.73;;;;;;;9.03;100.00;100805.88;10434406;28;20053;-55
2022/04/22 04:46:36;;;;;;;18.98;13.70;;;;;;;9.13;100.00;100798.41;10417684;28;20041;-56
2022/04/22 04:51:38;;;;;;;22.15;16.15;;;;;;;9.05;100.00;100803.19;10417892;28;20045;-56
2022/04/22 04:56:40;;;;;;;24.08;15.77;;;;;;;9.21;100.00;100805.84;10417939;28;20060;-56
2022/04/22 05:01:43;;;;;;;18.33;14.23;;;;;;;9.15;100.00;100799.19;10418076;28;20507;-56
2022/04/22 05:06:45;;;;;;;27.48;17.05;;;;;;;9.16;100.00;100798.25;10416956;28;20484;-56
2022/04/22 05:11:48;;;;;;;21.23;16.77;;;;;;;9.02;100.00;100796.34;10415235;28;20492;-57
2022/04/22 05:16:50;;;;;;;28.92;19.17;;;;;;;9.11;100.00;100798.50;10433799;28;20060;-56
2022/04/22 05:21:55;;;;;;;21.42;14.70;;;;;;;9.32;100.00;100790.47;10448789;28;20087;-56
2022/04/22 05:26:59;;;;;;;22.30;16.13;;;;;;;9.30;100.00;100801.00;10458107;28;20041;-56
2022/04/22 05:37:22;;;;;;;17.98;14.18;;;;;;;9.57;100.00;100794.41;10457859;28;20060;-56
2022/04/22 05:42:24;;;;;;;25.13;15.57;;;;;;;9.47;100.00;100797.50;10457533;28;20053;-56
2022/04/22 05:47:26;;;;;;;17.42;14.43;;;;;;;9.72;100.00;100792.75;10457486;28;20056;-56
2022/04/22 05:52:29;;;;;;;20.25;15.43;;;;;;;9.78;100.00;100800.25;10457352;28;20055;-57
2022/04/22 05:57:32;;;;;;;22.42;16.70;;;;;;;9.96;100.00;100799.25;10456080;28;20049;-56
2022/04/22 06:02:35;;;;;;;23.30;16.20;;;;;;;10.39;100.00;100794.28;10456448;28;20057;-56
2022/04/22 06:07:38;;;;;;;20.45;15.93;;;;;;;10.43;100.00;100804.56;10456450;28;20480;-56
2022/04/22 06:12:41;;;;;;;22.67;17.48;;;;;;;10.27;100.00;100804.56;10456840;28;20056;-56
2022/04/22 06:17:44;;;;;;;17.02;15.23;;;;;;;10.96;100.00;100800.59;10465525;28;20056;-57
2022/04/22 06:22:46;;;;;;;17.17;14.32;;;;;;;11.13;100.00;100791.78;10464609;28;20041;-56
2022/04/22 06:27:49;;;;;;;18.50;16.50;;;;;;;11.00;100.00;100791.66;10421299;22;20045;-64
2022/04/22 06:32:53;;;;;;;18.23;15.85;;;;;;;10.71;100.00;100799.44;10382869;28;20053;-63
2022/04/22 06:37:55;;;;;;;18.23;15.70;;;;;;;10.87;100.00;100802.00;10382654;28;20133;-63
2022/04/22 06:48:35;;;;;;;19.75;15.13;;;;;;;11.28;100.00;100790.00;10382294;28;20054;-63
2022/04/22 06:53:47;;;;;;;16.85;14.90;;;;;;;11.59;100.00;100788.97;10382031;28;20050;-63
2022/04/22 06:58:49;;;;;;;18.23;14.98;;;;;;;11.74;100.00;100781.09;10381865;28;20061;-63
2022/04/22 07:03:52;;;;;;;22.60;18.15;;;;;;;11.52;100.00;100780.63;10380865;28;20404;-63
2022/04/22 07:08:55;;;;;;;18.50;16.08;;;;;;;12.17;100.00;100765.25;10396630;28;20057;-63
2022/04/22 07:13:59;;;;;;;17.85;15.93;;;;;;;12.65;99.16;100763.00;10381206;28;20056;-63
2022/04/22 07:19:01;;;;;;;21.15;16.38;;;;;;;12.38;99.72;100761.25;10379260;28;20493;-63
2022/04/22 07:24:04;;;;;;;18.45;14.98;;;;;;;12.89;95.53;100759.66;10380683;28;20058;-63
2022/04/22 07:29:09;;;;;;;22.15;16.58;;;;;;;13.13;94.45;100751.88;10379879;28;20512;-64
2022/04/22 07:34:12;;;;;;;17.17;15.48;;;;;;;13.19;92.98;100747.03;10380383;28;20050;-64
2022/04/22 07:39:14;;;;;;;16.13;14.43;;;;;;;12.94;89.86;100766.28;10380283;28;20052;-63
2022/04/22 07:49:40;;;;;;;17.75;15.90;;;;;;;15.42;83.43;100753.56;10378269;28;20456;-63
2022/04/22 07:54:43;;;;;;;16.98;15.20;;;;;;;15.15;79.88;100767.09;10379604;28;20046;-63
2022/04/22 07:59:45;;;;;;;18.88;14.95;;;;;;;16.05;78.54;100762.72;10379446;28;20045;-64
2022/04/22 08:04:47;;;;;;;17.33;15.20;;;;;;;14.18;84.10;100762.94;10378515;28;20045;-63
2022/04/22 08:09:51;;;;;;;15.52;13.27;;;;;;;14.98;81.99;100760.50;10379060;28;20057;-63
2022/04/22 08:14:53;;;;;;;15.80;13.98;;;;;;;14.54;80.99;100766.44;10378206;28;20477;-64
2022/04/22 08:19:55;;;;;;;15.25;13.25;;;;;;;14.09;84.07;100756.56;10378127;28;20428;-63
2022/04/22 08:24:58;;;;;;;15.68;13.95;;;;;;;14.26;83.85;100737.72;10376358;28;20432;-63
2022/04/22 08:30:01;;;;;;;16.25;13.38;;;;;;;13.97;81.81;100744.28;10377695;28;20507;-63
2022/04/22 08:35:04;;;;;;;16.15;13.82;;;;;;;15.00;82.53;100745.38;10378160;28;20053;-64
2022/04/22 08:40:08;;;;;;;13.88;12.48;;;;;;;15.07;78.61;100745.75;10377397;28;20054;-63
2022/04/22 08:45:11;;;;;;;12.05;10.75;;;;;;;17.11;70.23;100730.13;10377887;28;20073;-64
2022/04/22 08:50:16;;;;;;;13.77;11.30;;;;;;;18.19;67.08;100731.28;10377511;28;20056;-63
2022/04/22 08:55:19;;;;;;;13.85;12.20;;;;;;;16.67;68.48;100724.16;10377290;28;20056;-63
2022/04/22 09:00:22;;;;;;;14.15;10.63;;;;;;;17.98;64.66;100716.31;10376004;28;20053;-63
2022/04/22 09:05:26;;;;;;;14.05;11.38;;;;;;;16.90;65.09;100714.31;10376337;28;20049;-63
2022/04/22 09:10:29;;;;;;;12.55;10.32;;;;;;;18.47;64.51;100721.63;10376823;28;20108;-63
2022/04/22 09:15:34;;;;;;;12.85;11.23;;;;;;;17.96;64.59;100722.75;10376560;28;20061;-63
2022/04/22 09:21:01;;;;;;;13.30;11.10;;;;;;;17.96;63.31;100720.09;10376388;28;20068;-63
2022/04/22 09:26:05;;;;;;;12.45;11.25;;;;;;;16.81;66.72;100707.13;10375854;28;20545;-63
2022/04/22 09:31:08;;;;;;;13.63;10.05;;;;;;;17.34;67.12;100695.56;10376068;28;20075;-63
2022/04/22 09:47:12;;;;;;;12.13;10.82;;;;;;;16.76;67.59;100696.94;10375647;28;20048;-63
2022/04/22 09:52:29;;;;;;;13.07;10.27;;;;;;;18.20;62.56;100694.00;10375071;28;20061;-63
2022/04/22 09:57:57;;;;;;;10.98;9.23;;;;;;;18.77;61.24;100676.50;10374174;28;20060;-63
2022/04/22 10:03:00;;;;;;;13.70;10.40;;;;;;;18.04;60.63;100677.00;10375043;28;20053;-63
2022/04/22 10:08:03;;;;;;;10.02;8.75;;;;;;;17.83;62.92;100670.00;10374453;28;20394;-63
2022/04/22 10:13:12;;;;;;;12.45;9.95;;;;;;;17.88;61.30;100670.47;10374377;28;20501;-63
2022/04/22 10:18:15;;;;;;;10.00;8.05;;;;;;;18.34;58.56;100658.31;10375019;28;20054;-64
2022/04/22 10:23:18;;;;;;;10.63;8.60;;;;;;;18.43;57.88;100659.28;10374067;28;20054;-64
2022/04/22 10:28:21;;;;;;;10.70;9.30;;;;;;;17.04;63.11;100652.28;10372810;28;20056;-64
2022/04/22 10:33:27;;;;;;;11.25;8.73;;;;;;;17.83;59.31;100651.47;10373442;28;20473;-64
2022/04/22 10:38:40;;;;;;;12.75;7.80;;;;;;;18.85;60.90;100634.22;10374509;28;20053;-64
2022/04/22 10:43:42;;;;;;;12.38;6.82;;;;;;;17.67;60.18;100630.00;10372622;28;20559;-64
2022/04/22 10:49:14;;;;;;;12.13;7.95;;;;;;;17.58;59.53;100632.50;10372475;28;20057;-64
2022/04/22 10:54:21;;;;;;;9.23;6.88;;;;;;;16.66;62.95;100622.03;10374165;28;20053;-64
2022/04/22 10:59:28;;;;;;;11.75;7.32;;;;;;;17.11;62.55;100620.84;10374524;28;20405;-64
2022/04/22 11:04:31;;;;;;;12.25;6.53;;;;;;;17.50;60.41;100624.44;10364742;28;20050;-64
2022/04/22 11:09:33;;;;;;;9.70;7.18;;;;;;;16.64;61.19;100619.53;10380802;28;20076;-63
2022/04/22 11:14:47;;;;;;;12.50;7.80;;;;;;;16.42;62.61;100622.31;10381227;28;20050;-64
2022/04/22 11:19:59;;;;;;;8.93;6.93;;;;;;;16.62;64.22;100613.53;10381088;28;20057;-63
2022/04/22 11:25:02;;;;;;;9.48;6.72;;;;;;;16.74;61.59;100611.63;10380539;28;20071;-63
2022/04/22 11:30:05;;;;;;;8.60;7.05;;;;;;;16.60;62.19;100607.53;10380656;28;20050;-64
2022/04/22 11:35:11;;;;;;;8.65;7.35;;;;;;;16.65;64.42;100610.63;10378625;28;20379;-64
2022/04/22 11:40:19;;;;;;;10.73;7.13;;;;;;;16.67;62.05;100607.84;10380274;28;20065;-64
2022/04/22 11:45:21;;;;;;;9.80;6.82;;;;;;;16.60;64.09;100606.72;10379387;28;20386;-64
2022/04/22 11:50:24;;;;;;;8.02;6.78;;;;;;;18.90;59.77;100592.16;10379289;28;20513;-64
2022/04/22 11:55:27;;;;;;;7.60;5.78;;;;;;;18.30;55.68;100589.84;10379616;28;20050;-64
2022/04/22 12:05:52;;;;;;;8.53;6.57;;;;;;;17.26;58.18;100585.94;10378778;28;20521;-63
2022/04/22 12:10:55;;;;;;;8.25;6.38;;;;;;;16.62;59.97;100586.25;10378582;28;20297;-64
2022/04/22 12:16:00;;;;;;;10.93;5.78;;;;;;;16.66;60.28;100579.72;10377734;28;20100;-64
2022/04/22 12:21:06;;;;;;;6.38;5.78;;;;;;;17.21;59.71;100579.38;10378850;28;20050;-64
2022/04/22 12:26:26;;;;;;;6.38;5.43;;;;;;;17.88;56.73;100566.34;10377591;28;20452;-63
2022/04/22 12:31:30;;;;;;;6.55;5.60;;;;;;;19.38;54.73;100548.53;10377673;28;20046;-64
2022/04/22 12:36:38;;;;;;;6.50;5.90;;;;;;;21.91;48.60;100553.56;10378095;28;20050;-64
2022/04/22 12:41:46;;;;;;;7.40;5.93;;;;;;;20.27;49.46;100535.31;10377234;28;20485;-64
2022/04/22 12:52:12;;;;;;;11.63;5.97;;;;;;;17.86;53.94;100544.44;10377545;28;20053;-64
2022/04/22 12:57:25;;;;;;;8.52;5.43;;;;;;;18.11;54.32;100535.09;10376661;28;20057;-64
2022/04/22 13:02:34;;;;;;;6.05;5.45;;;;;;;17.42;55.83;100527.19;10376422;28;20056;-64
2022/04/22 13:07:45;;;;;;;9.38;5.85;;;;;;;17.87;56.47;100523.16;10376923;28;20077;-63
2022/04/22 13:12:48;;;;;;;6.00;5.30;;;;;;;20.33;51.70;100518.72;10374995;28;20511;-64
2022/04/22 13:17:51;;;;;;;7.53;5.05;;;;;;;23.06;46.17;100507.81;10376559;28;20046;-64
2022/04/22 13:22:56;;;;;;;12.00;5.32;;;;;;;22.04;45.57;100497.88;10375625;28;20400;-64
2022/04/22 13:27:59;;;;;;;5.70;4.93;;;;;;;20.03;49.54;100503.09;10375623;28;20057;-64
2022/04/22 13:33:01;;;;;;;7.18;5.70;;;;;;;19.66;47.44;100492.72;10375434;28;20409;-64
2022/04/22 13:38:03;;;;;;;8.90;5.10;;;;;;;18.85;50.23;100494.47;10375884;28;20134;-63
2022/04/22 13:43:06;;;;;;;11.25;5.72;;;;;;;19.37;51.49;100490.31;10375853;28;20050;-64
2022/04/22 13:53:29;;;;;;;9.88;5.88;;;;;;;18.38;53.58;100492.72;10375542;28;20125;-64
2022/04/22 13:58:33;;;;;;;8.45;4.97;;;;;;;17.81;54.28;100491.91;10375382;28;20053;-64
2022/04/22 14:03:36;;;;;;;5.95;5.35;;;;;;;17.55;55.69;100494.28;10375469;28;20078;-64
2022/04/22 14:08:38;;;;;;;7.07;5.80;;;;;;;17.58;55.72;100494.84;10374443;28;20053;-64
2022/04/22 14:13:41;;;;;;;7.35;5.75;;;;;;;17.14;56.45;100505.03;10374024;28;20046;-64
2022/04/22 14:18:44;;;;;;;9.90;6.20;;;;;;;16.81;57.04;100496.47;10374909;28;20050;-63
2022/04/22 14:23:46;;;;;;;9.68;5.38;;;;;;;17.35;56.44;100496.97;10374702;28;20056;-64
2022/04/22 14:28:49;;;;;;;7.97;5.93;;;;;;;17.49;57.60;100486.94;10374075;28;20069;-64
2022/04/22 14:33:51;;;;;;;7.20;5.03;;;;;;;17.36;57.54;100492.50;10374155;28;20509;-64
2022/04/22 14:38:53;;;;;;;6.25;5.53;;;;;;;17.46;58.66;100488.88;10382023;28;20057;-63
2022/04/22 14:43:56;;;;;;;6.43;5.03;;;;;;;17.30;58.56;100488.63;10381826;28;20524;-64
2022/04/22 14:48:58;;;;;;;7.47;5.30;;;;;;;17.09;58.37;100488.72;10382303;28;20050;-64
2022/04/22 14:54:00;;;;;;;9.40;5.15;;;;;;;16.74;59.04;100475.97;10382205;28;20057;-63
2022/04/22 14:59:03;;;;;;;7.13;5.25;;;;;;;17.08;58.36;100474.69;10381257;28;20517;-64
2022/04/22 15:04:06;;;;;;;7.35;5.65;;;;;;;17.14;58.46;100475.09;10381608;28;20049;-64
2022/04/22 15:09:09;;;;;;;6.78;5.35;;;;;;;17.09;58.45;100471.03;10381617;28;20050;-63
2022/04/22 15:14:16;;;;;;;8.48;5.70;;;;;;;18.82;57.05;100478.00;10381492;28;20045;-64
2022/04/22 15:24:40;;;;;;;9.75;5.95;;;;;;;17.45;57.13;100475.78;10380902;28;20046;-64
2022/04/22 15:29:45;;;;;;;8.32;6.90;;;;;;;16.99;57.91;100470.19;10380118;28;20137;-64
2022/04/22 15:34:47;;;;;;;9.07;6.85;;;;;;;17.78;57.68;100457.75;10379899;28;20129;-64
2022/04/22 15:39:58;;;;;;;9.85;6.65;;;;;;;18.80;54.72;100454.25;10380390;28;20054;-64
2022/04/22 15:45:00;;;;;;;9.80;7.13;;;;;;;17.99;56.49;100444.38;10379916;28;20077;-64
2022/04/22 15:50:03;;;;;;;9.35;7.20;;;;;;;18.30;56.65;100447.56;10377300;28;20053;-64
2022/04/22 15:55:12;;;;;;;8.10;7.05;;;;;;;17.09;57.70;100449.06;10379830;28;20077;-64
2022/04/22 16:00:17;;;;;;;11.35;6.40;;;;;;;17.02;58.15;100451.41;10379563;28;20052;-64
2022/04/22 16:05:19;;;;;;;15.02;8.25;;;;;;;17.11;58.15;100448.91;10378613;28;20493;-64
2022/04/22 16:10:22;;;;;;;13.05;6.80;;;;;;;16.95;59.37;100452.13;10379116;28;20054;-64
2022/04/22 16:15:31;;;;;;;12.00;6.45;;;;;;;17.09;58.64;100446.41;10378498;28;20100;-64
2022/04/22 16:20:35;;;;;;;10.95;6.38;;;;;;;17.07;59.42;100448.38;10378732;28;20058;-64
2022/04/22 16:25:38;;;;;;;8.73;6.30;;;;;;;17.42;57.29;100449.63;10378109;28;20057;-64
2022/04/22 16:30:41;;;;;;;9.93;6.60;;;;;;;17.24;57.17;100436.25;10378353;28;20057;-64
2022/04/22 16:35:43;;;;;;;12.05;6.72;;;;;;;17.51;57.52;100440.81;10376998;28;20046;-64
2022/04/22 16:40:46;;;;;;;6.68;5.85;;;;;;;17.88;56.91;100432.13;10377900;28;20058;-64
2022/04/22 16:45:49;;;;;;;10.88;6.43;;;;;;;17.36;58.43;100436.94;10377214;28;20073;-64
2022/04/22 16:50:52;;;;;;;12.02;6.47;;;;;;;17.69;58.03;100432.97;10377616;28;20114;-64
2022/04/22 16:55:54;;;;;;;17.48;6.10;;;;;;;17.45;57.27;100442.22;10376380;28;20049;-64
2022/04/22 17:00:56;;;;;;;11.38;6.35;;;;;;;17.20;57.33;100438.34;10376957;28;20049;-64
2022/04/22 17:06:00;;;;;;;9.85;5.72;;;;;;;17.39;56.66;100440.13;10376325;28;20402;-65
2022/04/22 17:11:04;;;;;;;7.65;6.07;;;;;;;16.84;57.10;100453.03;10376877;28;20056;-64
2022/04/22 17:26:48;;;;;;;12.10;7.80;;;;;;;16.10;59.92;100448.94;10375891;28;20061;-64
2022/04/22 17:31:52;;;;;;;14.13;7.75;;;;;;;15.81;60.30;100443.53;10390224;28;20051;-65
2022/04/22 17:36:56;;;;;;;14.38;7.88;;;;;;;15.81;61.42;100443.53;10414775;28;20045;-64
2022/04/22 17:41:59;;;;;;;12.77;7.13;;;;;;;15.85;60.74;100458.13;10391217;28;20060;-64
2022/04/22 17:47:02;;;;;;;12.43;8.00;;;;;;;15.35;60.43;100456.94;10376316;28;20132;-64
2022/04/22 17:52:05;;;;;;;12.18;8.30;;;;;;;15.38;60.86;100456.69;10387474;28;20049;-65
2022/04/22 17:57:08;;;;;;;11.90;8.00;;;;;;;15.23;61.38;100457.94;10374645;28;20057;-64
2022/04/22 18:02:11;;;;;;;9.73;7.40;;;;;;;14.98;63.11;100462.59;10375181;28;20050;-64
2022/04/22 18:07:14;;;;;;;10.45;8.18;;;;;;;14.64;65.76;100475.84;10374764;28;20057;-64
2022/04/22 18:12:17;;;;;;;8.30;7.50;;;;;;;14.89;65.05;100479.13;10382443;28;20050;-64
2022/04/22 18:17:19;;;;;;;8.85;7.55;;;;;;;14.70;65.45;100469.25;10409069;28;20052;-64
2022/04/22 18:22:23;;;;;;;10.27;9.02;;;;;;;14.25;68.16;100479.78;10412767;28;20551;-64
2022/04/22 18:27:25;;;;;;;11.57;8.48;;;;;;;14.38;68.20;100480.50;10412847;28;20386;-65
2022/04/22 18:32:27;;;;;;;13.63;9.40;;;;;;;14.27;68.91;100481.34;10387099;28;20504;-64
2022/04/22 18:37:30;;;;;;;13.25;8.82;;;;;;;14.07;69.99;100482.91;10395323;28;20046;-64
2022/04/22 18:42:35;;;;;;;10.15;8.68;;;;;;;13.80;71.62;100496.38;10413010;22;20137;-62
2022/04/22 18:47:39;;;;;;;11.20;9.85;;;;;;;13.63;73.55;100500.25;10416114;28;20049;-61
2022/04/22 18:52:42;;;;;;;10.45;9.45;;;;;;;13.61;72.94;100501.34;10442879;28;20380;-61
2022/04/22 18:57:44;;;;;;;10.48;9.38;;;;;;;13.42;74.50;100504.50;10454852;28;20049;-61
2022/04/22 19:02:47;;;;;;;11.70;9.35;;;;;;;13.51;72.40;100514.34;10420731;28;20049;-61
2022/04/22 19:07:50;;;;;;;15.75;10.52;;;;;;;13.41;75.10;100514.16;10454483;28;20045;-61
2022/04/22 19:12:52;;;;;;;13.43;9.68;;;;;;;13.23;76.42;100516.34;10449992;28;20491;-61
2022/04/22 19:17:55;;;;;;;11.82;9.00;;;;;;;12.94;77.76;100523.69;10454595;28;20053;-61
2022/04/22 19:22:58;;;;;;;12.27;9.57;;;;;;;12.98;76.97;100523.38;10458338;28;20041;-61
2022/04/22 19:28:01;;;;;;;12.48;10.13;;;;;;;12.92;76.41;100521.16;10459841;28;20072;-60
2022/04/22 19:33:03;;;;;;;14.80;10.98;;;;;;;12.90;75.55;100522.25;10462261;28;20075;-61
2022/04/22 19:43:30;;;;;;;13.07;11.23;;;;;;;12.60;77.65;100526.91;10461706;28;20408;-60
2022/04/22 19:48:33;;;;;;;15.05;10.65;;;;;;;12.53;80.21;100522.22;10443220;28;20049;-61
2022/04/22 19:53:35;;;;;;;14.00;11.18;;;;;;;12.37;82.49;100533.81;10421315;28;20489;-60
2022/04/22 19:58:37;;;;;;;12.90;10.57;;;;;;;12.23;83.24;100537.34;10421706;28;20045;-60
2022/04/22 20:03:40;;;;;;;13.63;11.18;;;;;;;11.85;87.09;100530.28;10420469;28;20050;-60
2022/04/22 20:08:42;;;;;;;14.50;11.07;;;;;;;11.94;85.59;100535.88;10419458;28;20408;-61
2022/04/22 20:13:47;;;;;;;13.27;10.13;;;;;;;11.92;85.04;100528.13;10419418;28;20428;-60
2022/04/22 20:18:49;;;;;;;15.77;10.00;;;;;;;11.78;84.12;100526.38;10419832;28;20049;-60
2022/04/22 20:23:52;;;;;;;11.68;9.70;;;;;;;11.98;83.74;100535.56;10420772;28;20057;-61
2022/04/22 20:28:54;;;;;;;11.13;9.90;;;;;;;11.88;84.03;100530.06;10422856;28;20048;-60
2022/04/22 20:33:57;;;;;;;13.50;10.40;;;;;;;11.92;85.05;100535.13;10418235;28;20072;-60
2022/04/22 20:44:21;;;;;;;13.37;10.27;;;;;;;11.84;87.18;100544.31;10418214;28;20064;-60
2022/04/22 20:49:23;;;;;;;14.30;9.57;;;;;;;11.96;84.09;100541.88;10420771;28;20052;-60
2022/04/22 20:54:25;;;;;;;20.67;9.13;;;;;;;11.90;84.07;100551.78;10418415;28;20068;-60
2022/04/22 20:59:28;;;;;;;11.85;8.98;;;;;;;11.73;88.27;100546.81;10419345;28;20045;-60
2022/04/22 21:04:30;;;;;;;12.05;8.65;;;;;;;11.77;88.04;100557.94;10418089;28;20053;-61
2022/04/22 21:09:33;;;;;;;15.18;10.13;;;;;;;11.73;87.06;100559.94;10418874;28;20045;-60
2022/04/22 21:14:36;;;;;;;10.52;9.40;;;;;;;11.67;88.26;100561.19;10417714;28;20064;-60
2022/04/22 21:19:39;;;;;;;12.10;9.07;;;;;;;11.61;88.63;100564.19;10417431;28;20046;-60
2022/04/22 21:24:41;;;;;;;15.27;9.48;;;;;;;11.56;87.92;100568.91;10418167;28;20045;-60
2022/04/22 21:29:44;;;;;;;12.05;9.23;;;;;;;11.68;87.52;100564.63;10420414;28;20046;-61
2022/04/22 21:34:46;;;;;;;12.15;9.02;;;;;;;11.36;92.98;100575.44;10416957;28;20063;-60
2022/04/22 21:39:48;;;;;;;11.00;9.52;;;;;;;11.20;95.52;100565.09;10415980;28;20508;-59
2022/04/22 21:44:51;;;;;;;10.60;8.95;;;;;;;11.07;96.99;100574.69;10417574;28;20045;-60
2022/04/22 21:49:53;;;;;;;9.60;8.60;;;;;;;11.17;92.56;100572.31;10424997;28;20480;-60
2022/04/22 21:54:55;;;;;;;16.38;9.68;;;;;;;10.86;99.62;100572.47;10456728;28;20053;-60
2022/04/22 21:59:58;;;;;;;12.23;9.63;;;;;;;10.93;98.71;100573.75;10457064;28;20057;-60
2022/04/22 22:05:00;;;;;;;9.38;8.40;;;;;;;10.81;98.27;100576.28;10456535;28;20053;-60
2022/04/22 22:10:04;;;;;;;16.88;9.32;;;;;;;10.87;97.38;100568.06;10454832;28;20396;-60
2022/04/22 22:15:07;;;;;;;13.07;9.43;;;;;;;10.85;98.23;100570.78;10457011;28;20049;-60
2022/04/22 22:20:10;;;;;;;10.70;9.00;;;;;;;10.95;95.59;100563.19;10456952;28;20060;-60
2022/04/22 22:25:12;;;;;;;12.65;7.90;;;;;;;11.19;92.90;100563.41;10456501;28;20041;-60
2022/04/22 22:30:14;;;;;;;10.45;9.43;;;;;;;10.90;98.11;100557.41;10452960;28;20064;-60
2022/04/22 22:35:17;;;;;;;13.45;8.10;;;;;;;11.02;91.90;100545.31;10456101;28;20049;-60
2022/04/22 22:40:19;;;;;;;13.50;8.48;;;;;;;10.95;95.32;100545.69;10456381;28;20061;-60
2022/04/22 22:45:22;;;;;;;10.05;9.05;;;;;;;11.03;94.14;100546.97;10436521;28;20405;-60
2022/04/22 22:50:25;;;;;;;9.13;7.60;;;;;;;10.94;93.04;100538.78;10420552;28;20049;-60
2022/04/22 22:55:27;;;;;;;11.18;9.45;;;;;;;10.75;97.34;100538.25;10416297;28;20046;-60
2022/04/22 23:00:29;;;;;;;12.05;8.63;;;;;;;10.47;100.00;100539.94;10422285;28;20524;-60
2022/04/22 23:05:32;;;;;;;11.30;9.05;;;;;;;10.62;99.91;100543.38;10439112;28;20049;-60
2022/04/22 23:10:34;;;;;;;11.23;7.97;;;;;;;10.83;94.64;100543.00;10461795;28;20052;-60
2022/04/22 23:15:39;;;;;;;9.57;8.57;;;;;;;10.67;97.74;100540.50;10463598;28;20045;-61
2022/04/22 23:20:42;;;;;;;14.57;9.48;;;;;;;10.59;100.00;100541.81;10442232;28;20053;-61
2022/04/22 23:25:44;;;;;;;9.35;8.45;;;;;;;10.70;98.80;100535.91;10421852;28;20045;-60
2022/04/22 23:30:46;;;;;;;15.55;10.27;;;;;;;10.73;99.27;100532.25;10422783;28;20057;-60
2022/04/22 23:35:49;;;;;;;13.65;11.07;;;;;;;10.54;100.00;100529.91;10421502;28;20049;-61
2022/04/22 23:40:51;;;;;;;11.30;9.85;;;;;;;10.53;99.74;100536.94;10457800;28;20063;-60
2022/04/22 23:45:53;;;;;;;17.08;11.90;;;;;;;10.40;100.00;100528.16;10461722;28;20067;-60
2022/04/22 23:50:56;;;;;;;14.20;10.40;;;;;;;10.51;99.97;100527.53;10437428;28;20054;-60
2022/04/22 23:55:59;;;;;;;12.57;11.00;;;;;;;10.34;100.00;100533.75;10420768;28;20046;-61
